createdAt,value
2023-05-15T00:02:07.352Z,60.84
2023-05-15T00:05:09.498Z,59.78
2023-05-15T00:08:11.536Z,58.89
2023-05-15T00:11:13.537Z,58.41
2023-05-15T00:14:15.394Z,58.76
2023-05-15T00:17:17.301Z,58.39
2023-05-15T00:20:19.219Z,59.14
2023-05-15T00:23:21.175Z,59.25
2023-05-15T00:26:23.505Z,58.65
2023-05-15T00:29:25.358Z,58.54
2023-05-15T00:32:27.366Z,58.33
2023-05-15T00:35:29.340Z,57.92
2023-05-15T00:38:33.781Z,57.84
2023-05-15T00:41:37.013Z,57.79
2023-05-15T00:44:41.590Z,58.03
2023-05-15T00:47:43.983Z,58.36
2023-05-15T00:50:45.930Z,58.64
2023-05-15T00:53:47.913Z,58.83
2023-05-15T00:56:51.624Z,59.33
2023-05-15T00:59:56.873Z,59.68
2023-05-15T01:03:00.072Z,60.32
2023-05-15T01:06:02.418Z,60.97
2023-05-15T01:09:05.650Z,60.31
2023-05-15T01:12:09.885Z,60.41
2023-05-15T01:15:11.876Z,60.72
2023-05-15T01:18:13.774Z,60.80
2023-05-15T01:21:57.841Z,60.50
2023-05-15T01:25:37.100Z,60.90
2023-05-15T01:28:46.195Z,60.69
2023-05-15T01:31:57.219Z,60.94
2023-05-15T01:35:27.661Z,61.59
2023-05-15T01:38:39.993Z,61.34
2023-05-15T01:41:43.140Z,62.11
2023-05-15T01:45:06.017Z,62.50
2023-05-15T01:48:09.271Z,62.05
2023-05-15T01:51:13.725Z,62.20
2023-05-15T01:54:18.492Z,63.15
2023-05-15T01:57:25.165Z,63.00
2023-05-15T02:00:27.353Z,62.78
2023-05-15T02:03:34.620Z,62.90
2023-05-15T02:06:37.457Z,63.21
2023-05-15T02:09:40.224Z,63.40
2023-05-15T02:12:42.873Z,63.62
2023-05-15T02:15:44.797Z,64.12
2023-05-15T02:18:49.624Z,63.86
2023-05-15T02:21:51.510Z,65.33
2023-05-15T02:24:53.487Z,64.57
2023-05-15T02:28:00.164Z,64.09
2023-05-15T02:31:07.661Z,64.30
2023-05-15T02:34:32.749Z,65.05
2023-05-15T02:37:38.299Z,64.11
2023-05-15T02:40:40.902Z,64.03
2023-05-15T02:43:44.487Z,64.59
2023-05-15T02:46:48.310Z,64.50
2023-05-15T02:49:52.053Z,64.09
2023-05-15T02:53:05.184Z,63.95
2023-05-15T02:56:07.268Z,63.38
2023-05-15T02:59:09.271Z,62.27
2023-05-15T03:02:11.218Z,61.89
2023-05-15T03:05:13.166Z,61.52
2023-05-15T03:08:15.227Z,61.10
2023-05-15T03:11:19.326Z,60.71
2023-05-15T03:14:21.219Z,60.32
2023-05-15T03:17:23.105Z,60.20
2023-05-15T03:20:25.343Z,59.78
2023-05-15T03:23:27.263Z,59.43
2023-05-15T03:26:29.165Z,59.35
2023-05-15T03:29:31.234Z,59.02
2023-05-15T03:32:33.361Z,58.40
2023-05-15T03:35:36.218Z,57.66
2023-05-15T03:38:38.202Z,57.35
2023-05-15T03:41:40.128Z,56.59
2023-05-15T03:44:42.005Z,56.00
2023-05-15T03:47:44.020Z,55.14
2023-05-15T03:50:46.283Z,54.66
2023-05-15T03:53:48.216Z,53.55
2023-05-15T03:56:50.167Z,52.75
2023-05-15T03:59:52.011Z,51.95
2023-05-15T04:02:53.970Z,51.34
2023-05-15T04:05:55.941Z,50.77
2023-05-15T04:08:57.807Z,49.62
2023-05-15T04:11:59.685Z,48.88
2023-05-15T04:15:18.211Z,46.95
2023-05-15T04:18:20.103Z,47.14
2023-05-15T04:21:21.977Z,46.17
2023-05-15T04:24:23.791Z,46.15
2023-05-15T04:27:26.829Z,45.28
2023-05-15T04:30:28.725Z,44.33
2023-05-15T04:33:30.845Z,44.28
2023-05-15T04:36:32.786Z,43.64
2023-05-15T04:39:34.674Z,42.20
2023-05-15T04:42:39.121Z,42.08
2023-05-15T04:45:41.643Z,40.77
2023-05-15T04:48:43.506Z,39.95
2023-05-15T04:51:45.467Z,39.00
2023-05-15T04:54:49.694Z,38.37
2023-05-15T04:57:51.681Z,37.77
2023-05-15T05:00:53.887Z,36.57
2023-05-15T05:03:55.930Z,35.98
2023-05-15T05:06:57.836Z,35.92
2023-05-15T05:09:59.874Z,35.34
2023-05-15T05:13:01.734Z,35.13
2023-05-15T05:16:03.828Z,34.02
2023-05-15T05:19:06.730Z,33.57
2023-05-15T05:22:08.889Z,33.12
2023-05-15T05:25:11.001Z,32.59
2023-05-15T05:28:12.835Z,32.35
2023-05-15T05:31:15.118Z,31.56
2023-05-15T05:34:17.228Z,31.52
2023-05-15T05:37:19.153Z,31.35
2023-05-15T05:40:21.026Z,30.96
2023-05-15T05:43:22.927Z,29.70
2023-05-15T05:46:24.852Z,28.47
2023-05-15T05:49:26.809Z,28.66
2023-05-15T05:52:29.466Z,27.32
2023-05-15T05:55:31.403Z,26.33
2023-05-15T05:58:33.497Z,26.31
2023-05-15T06:01:35.532Z,26.66
2023-05-15T06:04:37.420Z,26.71
2023-05-15T06:07:39.562Z,25.84
2023-05-15T06:10:42.442Z,26.14
2023-05-15T06:13:44.511Z,26.61
2023-05-15T06:16:46.428Z,25.40
2023-05-15T06:19:48.452Z,25.60
2023-05-15T06:22:50.398Z,25.91
2023-05-15T06:25:52.454Z,25.57
2023-05-15T06:28:54.353Z,25.72
2023-05-15T06:31:56.408Z,25.94
2023-05-15T06:34:58.393Z,25.35
2023-05-15T06:38:00.316Z,24.72
2023-05-15T06:41:02.255Z,25.27
2023-05-15T06:44:04.762Z,25.28
2023-05-15T06:47:07.122Z,24.56
2023-05-15T06:50:09.718Z,24.58
2023-05-15T06:53:13.709Z,24.18
2023-05-15T06:56:16.383Z,24.33
2023-05-15T06:59:18.363Z,24.62
2023-05-15T07:02:20.365Z,24.60
2023-05-15T07:05:22.316Z,24.48
2023-05-15T07:08:24.373Z,23.73
2023-05-15T07:11:27.082Z,24.30
2023-05-15T07:14:29.027Z,24.13
2023-05-15T07:17:32.412Z,24.56
2023-05-15T07:20:35.169Z,24.22
2023-05-15T07:23:37.298Z,24.17
2023-05-15T07:26:50.273Z,24.36
2023-05-15T07:29:59.214Z,23.76
2023-05-15T07:33:01.314Z,23.81
2023-05-15T07:36:03.307Z,24.05
2023-05-15T07:39:05.182Z,23.95
2023-05-15T07:42:07.156Z,23.85
2023-05-15T07:45:09.522Z,24.38
2023-05-15T07:48:16.579Z,23.56
2023-05-15T07:51:18.470Z,23.70
2023-05-15T07:54:20.922Z,22.72
2023-05-15T07:57:23.246Z,23.82
2023-05-15T08:00:25.193Z,23.01
2023-05-15T08:03:27.142Z,23.29
2023-05-15T08:06:29.061Z,22.90
2023-05-15T08:09:30.907Z,23.46
2023-05-15T08:12:33.130Z,23.59
2023-05-15T08:15:35.089Z,22.46
2023-05-15T08:18:37.037Z,23.69
2023-05-15T08:21:39.444Z,23.28
2023-05-15T08:24:42.035Z,22.56
2023-05-15T08:27:43.992Z,23.11
2023-05-15T08:30:46.028Z,22.34
2023-05-15T08:33:47.910Z,21.74
2023-05-15T08:36:49.825Z,22.21
2023-05-15T08:39:51.610Z,22.80
2023-05-15T08:42:55.700Z,21.88
2023-05-15T08:45:58.314Z,21.98
2023-05-15T08:49:11.636Z,22.02
2023-05-15T08:52:13.833Z,21.73
2023-05-15T08:55:16.990Z,21.86
2023-05-15T08:58:21.650Z,22.22
2023-05-15T09:01:24.242Z,22.89
2023-05-15T09:04:26.258Z,23.37
2023-05-15T09:07:30.416Z,23.47
2023-05-15T09:10:33.785Z,22.91
2023-05-15T09:13:35.751Z,22.78
2023-05-15T09:16:38.260Z,22.78
2023-05-15T09:19:40.592Z,22.69
2023-05-15T09:22:42.516Z,22.07
2023-05-15T09:25:52.916Z,21.24
2023-05-15T09:29:02.832Z,21.76
2023-05-15T09:32:10.097Z,21.77
2023-05-15T09:35:31.063Z,22.52
2023-05-15T09:38:35.089Z,23.03
2023-05-15T09:41:43.887Z,22.83
2023-05-15T09:44:46.497Z,22.70
2023-05-15T09:47:48.686Z,22.83
2023-05-15T09:50:50.824Z,22.70
2023-05-15T09:53:54.312Z,22.77
2023-05-15T09:56:57.524Z,23.17
2023-05-15T10:00:10.397Z,23.24
2023-05-15T10:03:14.621Z,22.85
2023-05-15T10:06:19.099Z,23.17
2023-05-15T10:09:22.199Z,22.80
2023-05-15T10:12:27.960Z,22.18
2023-05-15T10:15:30.429Z,22.05
2023-05-15T10:18:36.057Z,21.06
2023-05-15T10:21:40.259Z,21.77
2023-05-15T10:24:45.062Z,20.66
2023-05-15T10:27:48.172Z,21.14
2023-05-15T10:30:50.782Z,20.99
2023-05-15T10:33:55.411Z,21.12
2023-05-15T10:36:57.860Z,20.88
2023-05-15T10:40:01.674Z,20.71
2023-05-15T10:43:04.218Z,20.81
2023-05-15T10:46:06.888Z,21.31
2023-05-15T10:49:09.044Z,21.91
2023-05-15T10:52:10.999Z,21.89
2023-05-15T10:55:18.077Z,20.61
2023-05-15T10:58:24.136Z,21.07
2023-05-15T11:01:32.000Z,21.72
2023-05-15T11:04:35.241Z,21.07
2023-05-15T11:07:37.316Z,20.71
2023-05-15T11:10:39.620Z,20.60
2023-05-15T11:14:20.158Z,21.00
2023-05-15T11:17:24.874Z,19.59
2023-05-15T11:20:49.789Z,19.92
2023-05-15T11:24:04.394Z,19.22
2023-05-15T11:27:06.298Z,19.48
2023-05-15T11:30:08.611Z,20.32
2023-05-15T11:33:11.534Z,20.83
2023-05-15T11:36:15.950Z,20.20
2023-05-15T11:39:17.830Z,20.31
2023-05-15T11:42:19.670Z,20.08
2023-05-15T11:45:22.808Z,20.00
2023-05-15T11:48:27.867Z,19.26
2023-05-15T11:51:30.286Z,20.10
2023-05-15T11:54:32.513Z,19.93
2023-05-15T11:57:34.316Z,19.39
2023-05-15T12:00:36.277Z,19.13
2023-05-15T12:03:38.502Z,19.61
2023-05-15T12:06:41.549Z,19.83
2023-05-15T12:09:44.175Z,19.79
2023-05-15T12:12:46.489Z,20.10
2023-05-15T12:15:48.570Z,20.01
2023-05-15T12:18:50.613Z,19.95
2023-05-15T12:21:52.543Z,20.48
2023-05-15T12:24:58.884Z,21.64
2023-05-15T12:28:03.121Z,21.32
2023-05-15T12:31:05.450Z,21.64
2023-05-15T12:34:07.564Z,21.53
2023-05-15T12:37:15.203Z,20.96
2023-05-15T12:40:21.395Z,20.93
2023-05-15T12:43:26.618Z,20.71
2023-05-15T12:46:32.168Z,20.46
2023-05-15T12:49:36.907Z,20.01
2023-05-15T12:52:38.779Z,20.38
2023-05-15T12:55:41.004Z,20.53
2023-05-15T12:58:43.122Z,21.38
2023-05-15T13:01:45.381Z,22.03
2023-05-15T13:04:47.473Z,21.89
2023-05-15T13:07:49.537Z,22.13
2023-05-15T13:10:59.275Z,22.25
2023-05-15T13:14:01.335Z,22.08
2023-05-15T13:17:03.527Z,21.56
2023-05-15T13:20:06.520Z,21.05
2023-05-15T13:23:10.604Z,20.94
2023-05-15T13:26:12.482Z,20.99
2023-05-15T13:29:14.406Z,21.33
2023-05-15T13:32:16.332Z,20.64
2023-05-15T13:35:18.464Z,21.21
2023-05-15T13:38:20.923Z,21.28
2023-05-15T13:41:22.903Z,21.81
2023-05-15T13:44:24.827Z,21.78
2023-05-15T13:47:27.032Z,21.33
2023-05-15T13:50:29.021Z,21.78
2023-05-15T13:53:30.896Z,21.81
2023-05-15T13:56:32.688Z,21.16
2023-05-15T13:59:34.535Z,21.97
2023-05-15T14:02:36.354Z,21.74
2023-05-15T14:05:38.451Z,21.62
2023-05-15T14:08:40.411Z,21.60
2023-05-15T14:11:42.318Z,21.47
2023-05-15T14:14:45.959Z,20.92
2023-05-15T14:17:48.893Z,21.20
2023-05-15T14:20:50.895Z,21.17
2023-05-15T14:23:52.754Z,21.12
2023-05-15T14:26:54.488Z,21.16
2023-05-15T14:29:59.448Z,20.72
2023-05-15T14:33:01.431Z,21.30
2023-05-15T14:36:04.684Z,20.52
2023-05-15T14:39:06.690Z,20.43
2023-05-15T14:42:08.619Z,20.33
2023-05-15T14:45:10.584Z,20.23
2023-05-15T14:48:12.570Z,20.58
2023-05-15T14:51:14.490Z,20.32
2023-05-15T14:54:16.423Z,20.34
2023-05-15T14:57:20.469Z,21.41
2023-05-15T15:00:22.443Z,21.54
2023-05-15T15:03:25.768Z,21.57
2023-05-15T15:06:29.501Z,21.53
2023-05-15T15:09:31.387Z,21.85
2023-05-15T15:12:34.276Z,21.74
2023-05-15T15:15:37.403Z,22.00
2023-05-15T15:18:39.399Z,21.65
2023-05-15T15:21:41.312Z,21.95
2023-05-15T15:24:43.141Z,22.06
2023-05-15T15:27:46.432Z,22.20
2023-05-15T15:30:48.357Z,22.73
2023-05-15T15:33:50.134Z,23.66
2023-05-15T15:36:52.078Z,23.29
2023-05-15T15:39:53.797Z,23.69
2023-05-15T15:42:55.765Z,23.68
2023-05-15T15:45:57.667Z,23.64
2023-05-15T15:49:00.346Z,23.99
2023-05-15T15:52:02.374Z,24.58
2023-05-15T15:55:04.309Z,24.13
2023-05-15T15:58:06.288Z,24.37
2023-05-15T16:01:08.219Z,24.69
2023-05-15T16:04:10.229Z,24.86
2023-05-15T16:07:12.448Z,25.04
2023-05-15T16:10:14.570Z,25.18
2023-05-15T16:13:16.602Z,25.31
2023-05-15T16:16:18.693Z,25.40
2023-05-15T16:19:21.361Z,25.27
2023-05-15T16:22:23.206Z,25.44
2023-05-15T16:25:25.273Z,25.66
2023-05-15T16:28:27.133Z,26.39
2023-05-15T16:31:29.082Z,25.99
2023-05-15T16:34:31.095Z,26.34
2023-05-15T16:37:32.913Z,26.43
2023-05-15T16:40:34.744Z,26.55
2023-05-15T16:43:38.259Z,26.63
2023-05-15T16:46:40.225Z,26.92
2023-05-15T16:49:44.273Z,27.54
2023-05-15T16:52:47.815Z,27.86
2023-05-15T16:55:49.838Z,28.32
2023-05-15T16:58:53.667Z,28.98
2023-05-15T17:01:55.577Z,29.76
2023-05-15T17:04:57.490Z,30.10
2023-05-15T17:08:00.329Z,30.28
2023-05-15T17:11:02.181Z,30.99
2023-05-15T17:14:04.115Z,31.48
2023-05-15T17:17:06.066Z,31.83
2023-05-15T17:20:08.815Z,32.33
2023-05-15T17:23:10.739Z,32.74
2023-05-15T17:26:12.642Z,33.31
2023-05-15T17:29:14.563Z,33.89
2023-05-15T17:32:17.516Z,34.35
2023-05-15T17:35:19.601Z,34.87
2023-05-15T17:38:21.488Z,35.29
2023-05-15T17:41:23.410Z,35.88
2023-05-15T17:44:28.113Z,35.83
2023-05-15T17:47:30.086Z,36.02
2023-05-15T17:50:32.103Z,36.69
2023-05-15T17:53:34.070Z,37.32
2023-05-15T17:56:36.051Z,37.60
2023-05-15T17:59:38.016Z,38.19
2023-05-15T18:02:39.937Z,38.69
2023-05-15T18:05:41.807Z,38.61
2023-05-15T18:08:47.617Z,39.14
2023-05-15T18:11:49.530Z,39.47
2023-05-15T18:14:52.868Z,39.84
2023-05-15T18:17:54.833Z,40.40
2023-05-15T18:20:56.842Z,40.57
2023-05-15T18:23:58.764Z,40.63
2023-05-15T18:27:01.325Z,40.63
2023-05-15T18:30:03.310Z,40.73
2023-05-15T18:33:05.295Z,40.96
2023-05-15T18:36:08.351Z,41.20
2023-05-15T18:39:10.268Z,41.02
2023-05-15T18:42:12.208Z,41.29
2023-05-15T18:45:14.099Z,41.80
2023-05-15T18:48:16.018Z,42.37
2023-05-15T18:51:19.283Z,42.58
2023-05-15T18:54:21.180Z,42.74
2023-05-15T18:57:23.056Z,43.06
2023-05-15T19:00:37.069Z,43.17
2023-05-15T19:03:39.552Z,43.50
2023-05-15T19:06:44.521Z,43.70
2023-05-15T19:09:46.490Z,43.67
2023-05-15T19:12:48.443Z,44.30
2023-05-15T19:15:53.936Z,44.39
2023-05-15T19:18:56.019Z,44.17
2023-05-15T19:21:58.137Z,44.25
2023-05-15T19:25:00.177Z,44.29
2023-05-15T19:28:02.065Z,44.36
2023-05-15T19:31:11.774Z,44.48
2023-05-15T19:34:19.213Z,44.10
2023-05-15T19:37:21.142Z,44.16
2023-05-15T19:40:22.998Z,44.31
2023-05-15T19:43:24.905Z,44.20
2023-05-15T19:46:26.780Z,44.28
2023-05-15T19:49:28.960Z,44.34
2023-05-15T19:52:30.824Z,44.75
2023-05-15T19:55:32.905Z,45.39
2023-05-15T19:58:34.850Z,45.45
2023-05-15T20:01:36.794Z,45.52
2023-05-15T20:04:38.792Z,45.41
2023-05-15T20:07:41.118Z,45.00
2023-05-15T20:10:43.109Z,45.50
2023-05-15T20:13:45.649Z,46.47
2023-05-15T20:16:47.561Z,46.88
2023-05-15T20:19:49.654Z,46.55
2023-05-15T20:22:51.736Z,46.58
2023-05-15T20:25:54.618Z,46.82
2023-05-15T20:28:56.593Z,47.09
2023-05-15T20:31:59.607Z,47.44
2023-05-15T20:35:01.750Z,47.78
2023-05-15T20:38:04.461Z,48.01
2023-05-15T20:41:06.933Z,48.43
2023-05-15T20:44:08.873Z,48.88
2023-05-15T20:47:10.864Z,49.53
2023-05-15T20:50:12.819Z,49.62
2023-05-15T20:53:14.705Z,50.17
2023-05-15T20:56:16.640Z,50.38
2023-05-15T20:59:18.473Z,50.42
2023-05-15T21:02:20.340Z,50.40
2023-05-15T21:05:22.377Z,50.74
2023-05-15T21:08:24.343Z,50.30
2023-05-15T21:11:26.357Z,50.23
2023-05-15T21:14:28.259Z,50.35
2023-05-15T21:17:30.490Z,50.73
2023-05-15T21:20:34.905Z,50.75
2023-05-15T21:23:37.191Z,50.97
2023-05-15T21:26:39.134Z,50.72
2023-05-15T21:29:41.049Z,51.51
2023-05-15T21:32:42.932Z,51.62
2023-05-15T21:35:45.456Z,51.07
2023-05-15T21:38:47.593Z,50.27
2023-05-15T21:41:51.287Z,50.35
2023-05-15T21:44:53.100Z,50.57
2023-05-15T21:47:55.067Z,50.53
2023-05-15T21:50:57.762Z,50.69
2023-05-15T21:53:59.661Z,50.24
2023-05-15T21:57:01.584Z,50.00
2023-05-15T22:00:06.918Z,49.97
2023-05-15T22:03:08.782Z,49.53
2023-05-15T22:06:11.007Z,49.33
2023-05-15T22:09:12.878Z,49.12
2023-05-15T22:12:14.754Z,48.91
2023-05-15T22:15:17.116Z,48.65
2023-05-15T22:18:19.067Z,48.38
2023-05-15T22:21:21.086Z,47.98
2023-05-15T22:24:23.126Z,47.69
2023-05-15T22:27:25.024Z,47.70
2023-05-15T22:30:27.141Z,47.31
2023-05-15T22:33:29.619Z,47.28
2023-05-15T22:36:32.140Z,47.30
2023-05-15T22:39:34.271Z,47.16
2023-05-15T22:42:36.312Z,47.19
2023-05-15T22:45:38.472Z,47.14
2023-05-15T22:48:41.506Z,47.13
2023-05-15T22:51:44.754Z,47.34
2023-05-15T22:54:46.690Z,47.01
2023-05-15T22:57:48.791Z,46.93
2023-05-15T23:00:50.934Z,46.91
2023-05-15T23:03:52.895Z,47.01
2023-05-15T23:06:55.825Z,47.09
2023-05-15T23:09:57.857Z,47.10
2023-05-15T23:12:59.638Z,47.15
2023-05-15T23:16:01.568Z,47.21
2023-05-15T23:19:04.239Z,47.46
2023-05-15T23:22:06.538Z,47.46
2023-05-15T23:25:08.935Z,47.58
2023-05-15T23:28:11.105Z,47.82
2023-05-15T23:31:14.130Z,47.50
2023-05-15T23:34:16.242Z,47.71
2023-05-15T23:37:18.488Z,47.79
2023-05-15T23:40:20.453Z,47.97
2023-05-15T23:43:22.451Z,48.01
2023-05-15T23:46:24.509Z,47.95
2023-05-15T23:49:26.540Z,48.14
2023-05-15T23:52:28.510Z,48.34
2023-05-15T23:55:30.439Z,48.60
2023-05-15T23:58:32.341Z,48.69
